Time;durP1;ratioP1;P1;durP2;ratioP2;P2;SDS_P1;SDS_P2;PMS_P1;PMS_P2;Temp;Humidity;BMP_temperature;BMP_pressure;BME280_temperature;BME280_humidity;BME280_pressure;Samples;Min_cycle;Max_cycle;Signal;HPM_P1;HPM_P2
2023/04/10 00:00:55;;;;;;;9.77;8.60;;;;;;;11.11;46.04;99675.28;5074521;28;20416;-78
2023/04/10 00:03:21;;;;;;;10.02;9.02;;;;;;;11.03;46.13;99662.97;5074522;28;20027;-80
2023/04/10 00:05:47;;;;;;;12.63;9.95;;;;;;;11.12;46.34;99677.75;5074476;28;20021;-79
2023/04/10 00:08:12;;;;;;;10.75;9.05;;;;;;;10.77;46.08;99638.75;5074400;28;20481;-78
2023/04/10 00:10:38;;;;;;;10.63;9.38;;;;;;;10.78;46.48;99651.78;5074145;28;20025;-79
2023/04/10 00:13:04;;;;;;;14.98;11.15;;;;;;;11.13;46.57;99705.00;5074386;28;20020;-78
2023/04/10 00:15:30;;;;;;;12.55;10.65;;;;;;;11.20;46.18;99718.34;5074399;28;20107;-78
2023/04/10 00:17:55;;;;;;;11.07;9.75;;;;;;;11.13;46.40;99720.84;5074304;28;20111;-79
2023/04/10 00:20:22;;;;;;;10.23;8.98;;;;;;;11.10;46.59;99713.28;5072879;28;20016;-79
2023/04/10 00:22:48;;;;;;;11.20;9.75;;;;;;;10.98;46.79;99698.84;5074122;28;20413;-79
2023/04/10 00:25:13;;;;;;;11.65;10.02;;;;;;;10.33;46.29;99593.66;5073779;28;20036;-79
2023/04/10 00:27:39;;;;;;;12.15;10.20;;;;;;;11.02;46.84;99716.81;5074202;28;20024;-78
2023/04/10 00:30:05;;;;;;;13.27;10.65;;;;;;;10.77;46.83;99678.38;5073936;28;20017;-79
2023/04/10 00:32:30;;;;;;;13.68;11.27;;;;;;;10.58;46.85;99653.25;5072731;28;20024;-79
2023/04/10 00:34:56;;;;;;;14.02;11.35;;;;;;;10.32;47.45;99621.88;5073759;28;20416;-79
2023/04/10 00:37:21;;;;;;;14.07;10.80;;;;;;;10.59;47.45;99669.91;5072628;28;20409;-79
2023/04/10 00:39:47;;;;;;;12.65;10.52;;;;;;;10.73;47.24;99696.38;5073936;28;20016;-78
2023/04/10 00:42:12;;;;;;;11.95;10.70;;;;;;;10.08;47.54;99600.88;5073807;28;20028;-79
2023/04/10 00:44:37;;;;;;;11.27;9.63;;;;;;;10.10;47.26;99618.19;5073728;28;20029;-79
2023/04/10 00:47:04;;;;;;;10.77;9.60;;;;;;;10.65;46.99;99696.44;5073569;28;20508;-79
2023/04/10 00:49:30;;;;;;;13.02;10.55;;;;;;;10.22;47.56;99636.28;5073662;28;20021;-79
2023/04/10 00:51:56;;;;;;;19.15;13.48;;;;;;;10.61;47.65;99695.13;5073775;28;20025;-79
2023/04/10 00:54:22;;;;;;;13.65;10.65;;;;;;;10.55;47.68;99692.38;5073467;28;20066;-78
2023/04/10 00:56:48;;;;;;;10.82;9.05;;;;;;;10.23;47.94;99638.75;5073459;28;20028;-79
2023/04/10 00:59:14;;;;;;;10.25;9.13;;;;;;;9.91;48.01;99592.22;5073518;28;20020;-78
2023/04/10 01:01:39;;;;;;;10.75;9.45;;;;;;;10.00;47.97;99600.91;5073606;28;20031;-79
2023/04/10 01:04:06;;;;;;;12.75;9.70;;;;;;;10.05;48.01;99617.06;5073479;28;20486;-78
2023/04/10 01:07:02;;;;;;;11.55;10.02;;;;;;;10.42;48.15;99677.09;5073425;28;20052;-79
2023/04/10 01:09:54;;;;;;;13.05;11.02;;;;;;;10.41;47.65;99676.28;5073201;28;20021;-78
2023/04/10 01:12:25;;;;;;;13.07;10.75;;;;;;;10.40;48.09;99673.78;5067615;28;20036;-79
2023/04/10 01:15:10;;;;;;;15.45;11.60;;;;;;;10.39;48.05;99677.41;5073176;28;20493;-78
2023/04/10 01:18:05;;;;;;;13.30;10.27;;;;;;;10.33;47.92;99676.28;5071773;28;20047;-78
2023/04/10 01:20:33;;;;;;;13.88;10.98;;;;;;;9.82;48.27;99624.91;5072874;28;20020;-78
2023/04/10 01:23:35;;;;;;;15.82;10.40;;;;;;;10.23;48.11;99677.50;5072865;28;20013;-78
2023/04/10 01:26:06;;;;;;;12.93;9.85;;;;;;;9.76;48.38;99613.22;5072971;28;20429;-79
2023/04/10 01:29:19;;;;;;;11.32;9.32;;;;;;;10.10;48.73;99668.31;5072995;28;20052;-79
2023/04/10 01:31:52;;;;;;;11.50;9.30;;;;;;;10.03;48.96;99669.16;5071914;28;20050;-78
2023/04/10 01:34:42;;;;;;;12.10;9.38;;;;;;;9.68;49.07;99623.81;5073057;28;20099;-79
2023/04/10 01:37:12;;;;;;;11.15;9.95;;;;;;;9.62;48.95;99615.72;5072737;28;20035;-79
2023/04/10 01:39:40;;;;;;;13.23;10.07;;;;;;;9.63;49.12;99627.91;5072795;28;20100;-77
2023/04/10 01:42:09;;;;;;;12.13;8.93;;;;;;;9.71;48.96;99646.38;5072655;28;20024;-78
2023/04/10 01:44:40;;;;;;;10.23;9.23;;;;;;;9.41;48.84;99609.19;5072684;28;20409;-79
2023/04/10 01:47:06;;;;;;;9.87;8.87;;;;;;;9.85;48.80;99672.84;5071864;28;20047;-78
2023/04/10 01:49:33;;;;;;;12.85;9.23;;;;;;;9.79;49.10;99670.91;5072281;28;20505;-78
2023/04/10 01:51:59;;;;;;;9.55;8.55;;;;;;;9.72;49.36;99672.56;5072244;28;20508;-78
2023/04/10 01:54:30;;;;;;;10.05;8.60;;;;;;;9.69;48.91;99669.44;5072185;28;20025;-78
2023/04/10 01:56:58;;;;;;;10.57;9.13;;;;;;;9.66;49.29;99673.25;5072499;28;20025;-78
2023/04/10 01:59:24;;;;;;;10.23;8.48;;;;;;;9.48;49.30;99647.06;5072545;28;20023;-78
2023/04/10 02:01:58;;;;;;;10.15;8.75;;;;;;;9.20;49.44;99614.19;5072178;28;20024;-79
2023/04/10 02:04:25;;;;;;;10.30;8.23;;;;;;;9.18;49.70;99608.25;5072200;28;20029;-78
2023/04/10 02:07:02;;;;;;;9.48;8.48;;;;;;;8.92;49.67;99574.22;5072061;28;20020;-79
2023/04/10 02:09:47;;;;;;;17.42;13.05;;;;;;;9.23;49.50;99627.03;5072004;28;20024;-79
2023/04/10 02:12:21;;;;;;;11.60;10.38;;;;;;;9.18;49.55;99619.63;5072136;28;20082;-79
2023/04/10 02:14:49;;;;;;;12.57;9.73;;;;;;;9.20;49.36;99638.72;5071998;28;20064;-78
2023/04/10 02:17:20;;;;;;;11.13;9.85;;;;;;;9.46;49.56;99678.03;5071928;28;20027;-78
2023/04/10 02:19:47;;;;;;;12.10;9.10;;;;;;;8.86;49.52;99580.94;5072093;28;20096;-78
2023/04/10 02:22:15;;;;;;;10.43;9.32;;;;;;;9.05;49.65;99613.22;5071754;28;20032;-78
2023/04/10 02:24:40;;;;;;;11.73;9.10;;;;;;;9.42;49.78;99666.19;5071977;28;20099;-79
2023/04/10 02:27:05;;;;;;;10.75;8.45;;;;;;;9.41;49.80;99663.72;5070408;28;20596;-78
2023/04/10 02:29:31;;;;;;;9.68;8.57;;;;;;;9.21;49.56;99631.63;5071703;28;20024;-78
2023/04/10 02:31:56;;;;;;;11.10;9.60;;;;;;;8.69;49.33;99536.38;5071607;28;20031;-78
2023/04/10 02:34:22;;;;;;;13.40;9.00;;;;;;;9.05;49.34;99606.13;5070512;28;20481;-78
2023/04/10 02:36:47;;;;;;;10.88;9.35;;;;;;;9.29;49.59;99634.25;5076847;28;20048;-78
2023/04/10 02:39:12;;;;;;;10.50;9.07;;;;;;;9.32;49.39;99639.19;5071726;28;20543;-78
2023/04/10 02:41:38;;;;;;;11.45;8.98;;;;;;;9.30;49.50;99640.34;5071651;28;20027;-78
2023/04/10 02:44:03;;;;;;;11.63;10.15;;;;;;;8.47;49.51;99536.06;5072173;28;20016;-78
2023/04/10 02:46:29;;;;;;;12.73;10.77;;;;;;;8.70;49.52;99562.53;5071924;28;20020;-78
2023/04/10 02:48:54;;;;;;;12.88;10.90;;;;;;;8.71;49.61;99573.88;5071687;28;20031;-78
2023/04/10 02:51:20;;;;;;;13.10;10.45;;;;;;;9.14;49.71;99651.72;5071416;28;20024;-78
2023/04/10 02:53:46;;;;;;;14.00;11.65;;;;;;;9.10;50.21;99661.78;5069947;28;20028;-78
2023/04/10 02:56:12;;;;;;;11.30;10.02;;;;;;;8.83;49.71;99610.25;5071546;28;20025;-78
2023/04/10 02:58:38;;;;;;;11.23;10.00;;;;;;;9.03;49.88;99647.63;5070883;28;20044;-79
2023/04/10 03:01:08;;;;;;;12.23;9.80;;;;;;;9.00;49.63;99655.03;5071094;28;20020;-78
2023/04/10 03:03:33;;;;;;;12.93;9.95;;;;;;;8.75;49.71;99631.31;5071405;28;20520;-78
2023/04/10 03:05:59;;;;;;;12.32;9.73;;;;;;;8.67;50.20;99610.25;5071330;28;20025;-78
2023/04/10 03:08:24;;;;;;;13.57;10.05;;;;;;;8.32;49.97;99560.53;5071104;28;20076;-78
2023/04/10 03:10:50;;;;;;;11.80;8.95;;;;;;;8.48;49.87;99595.59;5071008;28;20112;-78
2023/04/10 03:13:16;;;;;;;11.30;9.98;;;;;;;8.78;50.00;99645.94;5069737;28;20017;-79
2023/04/10 03:15:41;;;;;;;11.88;10.30;;;;;;;8.73;49.70;99632.47;5071101;28;20048;-78
2023/04/10 03:18:08;;;;;;;10.15;9.15;;;;;;;8.42;50.12;99571.75;5071004;28;20412;-78
2023/04/10 03:20:35;;;;;;;12.07;9.95;;;;;;;8.67;49.83;99612.88;5071242;28;20596;-78
2023/04/10 03:23:02;;;;;;;11.85;10.20;;;;;;;8.78;49.73;99645.94;5071221;28;20471;-78
2023/04/10 03:25:28;;;;;;;11.85;10.38;;;;;;;8.83;50.08;99660.28;5070875;28;20072;-78
2023/04/10 03:27:54;;;;;;;12.85;11.20;;;;;;;8.68;49.67;99619.78;5070986;28;20052;-79
2023/04/10 03:30:20;;;;;;;21.65;16.85;;;;;;;8.60;49.88;99607.44;5069625;28;20028;-79
2023/04/10 03:32:45;;;;;;;16.85;13.60;;;;;;;8.31;49.63;99566.78;5071251;28;20021;-79
2023/04/10 03:35:11;;;;;;;15.75;12.88;;;;;;;8.01;49.78;99526.94;5071014;28;20543;-79
2023/04/10 03:37:36;;;;;;;13.88;10.65;;;;;;;8.11;49.66;99545.19;5069733;28;20081;-79
2023/04/10 03:40:06;;;;;;;13.55;11.20;;;;;;;8.06;49.65;99534.34;5071095;28;20099;-79
2023/04/10 03:42:32;;;;;;;11.45;10.25;;;;;;;8.68;49.80;99632.94;5070852;28;20020;-78
2023/04/10 03:44:57;;;;;;;13.90;10.68;;;;;;;8.34;49.89;99577.00;5070924;28;20382;-78
2023/04/10 03:47:22;;;;;;;13.38;11.63;;;;;;;8.19;49.54;99564.47;5070834;28;20031;-78
2023/04/10 03:49:48;;;;;;;16.98;12.75;;;;;;;8.21;50.15;99565.13;5070935;28;20096;-78
2023/04/10 03:52:13;;;;;;;13.88;11.73;;;;;;;8.14;49.75;99553.56;5070784;28;20497;-78
2023/04/10 03:54:39;;;;;;;16.95;13.20;;;;;;;8.31;49.90;99587.81;5070768;28;20449;-78
2023/04/10 03:57:04;;;;;;;17.52;14.10;;;;;;;8.07;49.75;99555.22;5070914;28;20027;-78
2023/04/10 03:59:30;;;;;;;19.33;14.88;;;;;;;8.23;49.77;99599.97;5070701;28;20025;-78
2023/04/10 04:01:56;;;;;;;23.58;17.00;;;;;;;8.21;50.26;99599.31;5070561;28;20028;-78
2023/04/10 04:04:21;;;;;;;20.13;16.75;;;;;;;8.65;49.99;99650.88;5070736;28;20020;-79
2023/04/10 04:06:47;;;;;;;26.15;18.98;;;;;;;8.46;49.76;99623.88;5069462;28;20074;-78
2023/04/10 04:09:13;;;;;;;26.13;20.65;;;;;;;8.58;49.91;99643.63;5070780;28;20043;-78
2023/04/10 04:11:38;;;;;;;27.02;21.00;;;;;;;8.69;49.68;99662.72;5073122;28;20090;-78
2023/04/10 04:14:03;;;;;;;33.83;24.63;;;;;;;7.96;49.90;99574.75;5072953;28;20024;-78
2023/04/10 04:16:29;;;;;;;49.85;31.30;;;;;;;8.59;50.07;99657.63;5074186;28;20485;-77
2023/04/10 04:18:54;;;;;;;43.28;28.88;;;;;;;8.38;49.84;99625.69;5072992;28;20498;-79
2023/04/10 04:21:20;;;;;;;28.83;21.92;;;;;;;8.53;50.14;99647.75;5074157;28;20489;-77
2023/04/10 04:23:45;;;;;;;22.33;18.48;;;;;;;8.59;49.96;99662.88;5074010;28;20020;-78
2023/04/10 04:26:10;;;;;;;19.73;16.92;;;;;;;8.56;50.00;99668.47;5073750;28;20498;-78
2023/04/10 04:28:36;;;;;;;18.42;15.07;;;;;;;8.53;49.51;99661.72;5073760;28;20016;-79
2023/04/10 04:31:01;;;;;;;16.02;13.77;;;;;;;8.52;50.23;99661.88;5073923;28;20508;-78
2023/04/10 04:33:27;;;;;;;17.60;13.73;;;;;;;8.44;49.81;99648.72;5074263;28;20033;-78
2023/04/10 04:35:52;;;;;;;16.60;13.10;;;;;;;8.46;50.40;99658.09;5073842;28;20162;-79
2023/04/10 04:38:19;;;;;;;19.30;13.80;;;;;;;8.21;50.38;99633.50;5073893;28;20024;-79
2023/04/10 04:40:44;;;;;;;21.33;15.05;;;;;;;8.48;50.20;99676.34;5072551;28;20013;-78
2023/04/10 04:43:10;;;;;;;20.50;14.90;;;;;;;8.24;50.10;99646.34;5072438;28;20027;-79
2023/04/10 04:45:35;;;;;;;21.20;16.15;;;;;;;8.40;50.13;99663.16;5073752;28;20127;-79
2023/04/10 04:48:01;;;;;;;22.08;16.52;;;;;;;8.44;50.54;99670.59;5073810;28;20028;-78
2023/04/10 04:50:26;;;;;;;19.00;15.23;;;;;;;7.93;50.53;99593.47;5073835;28;20031;-77
2023/04/10 04:52:52;;;;;;;30.58;20.02;;;;;;;8.51;50.51;99673.38;5074385;28;20039;-77
2023/04/10 04:55:17;;;;;;;18.55;13.93;;;;;;;8.57;50.16;99667.47;5073241;28;20024;-78
2023/04/10 04:57:42;;;;;;;18.05;13.35;;;;;;;8.47;50.57;99672.06;5072868;28;20093;-78
2023/04/10 05:00:08;;;;;;;17.75;14.05;;;;;;;8.27;49.80;99618.88;5074111;28;20052;-78
2023/04/10 05:02:34;;;;;;;14.25;11.85;;;;;;;8.33;50.02;99618.28;5074371;28;20480;-78
2023/04/10 05:04:59;;;;;;;16.42;13.38;;;;;;;8.47;50.56;99643.13;5073661;28;20092;-78
2023/04/10 05:07:25;;;;;;;19.30;15.02;;;;;;;8.31;50.21;99609.69;5073346;28;20036;-78
2023/04/10 05:09:51;;;;;;;20.45;15.00;;;;;;;8.62;50.33;99651.19;5073319;28;20017;-78
2023/04/10 05:12:16;;;;;;;21.77;14.70;;;;;;;8.88;50.00;99684.28;5073205;28;20028;-78
2023/04/10 05:14:42;;;;;;;15.07;10.63;;;;;;;8.94;49.83;99671.50;5072068;28;20081;-79
2023/04/10 05:17:07;;;;;;;17.10;12.60;;;;;;;8.83;49.58;99655.00;5073120;28;20021;-78
2023/04/10 05:19:32;;;;;;;17.85;12.57;;;;;;;8.79;49.54;99650.22;5069639;28;20016;-79
2023/04/10 05:21:58;;;;;;;18.30;12.93;;;;;;;8.78;49.05;99630.16;5055935;28;20111;-77
2023/04/10 05:24:23;;;;;;;17.75;13.48;;;;;;;9.08;49.48;99652.41;5067778;28;20032;-78
2023/04/10 05:26:49;;;;;;;21.70;14.25;;;;;;;8.86;49.35;99602.00;5071890;28;20063;-79
2023/04/10 05:29:14;;;;;;;20.17;14.93;;;;;;;9.22;49.21;99642.00;5085158;28;20028;-79
2023/04/10 05:31:39;;;;;;;17.83;13.63;;;;;;;9.56;48.87;99678.66;5072845;28;20020;-78
2023/04/10 05:34:05;;;;;;;20.73;15.85;;;;;;;9.43;48.64;99648.56;5071845;28;20036;-78
2023/04/10 05:36:31;;;;;;;20.88;15.40;;;;;;;9.64;49.14;99666.47;5072288;28;20114;-78
2023/04/10 05:38:56;;;;;;;22.45;15.40;;;;;;;9.59;49.01;99655.59;5072573;28;20020;-77
2023/04/10 05:41:22;;;;;;;20.92;16.10;;;;;;;9.84;48.62;99697.56;5072173;28;20032;-78
2023/04/10 05:43:48;;;;;;;19.13;13.52;;;;;;;9.90;48.83;99677.63;5069602;28;20033;-77
2023/04/10 05:46:14;;;;;;;17.85;12.88;;;;;;;10.13;48.45;99696.16;5071744;28;20095;-78
2023/04/10 05:48:39;;;;;;;16.67;13.02;;;;;;;10.14;48.41;99682.78;5070865;28;20103;-77
2023/04/10 05:51:05;;;;;;;17.85;12.98;;;;;;;9.97;48.45;99628.47;5075717;28;20107;-78
2023/04/10 05:53:31;;;;;;;20.45;13.07;;;;;;;10.29;48.17;99679.44;5072104;28;20025;-78
2023/04/10 05:55:58;;;;;;;19.50;12.70;;;;;;;10.51;48.40;99694.53;5070901;28;20153;-78
2023/04/10 05:58:24;;;;;;;14.20;12.57;;;;;;;10.25;48.01;99642.03;5070958;28;20027;-78
2023/04/10 06:00:50;;;;;;;13.82;11.98;;;;;;;10.55;47.53;99677.34;5072006;28;20017;-78
2023/04/10 06:03:16;;;;;;;14.00;11.23;;;;;;;10.45;47.93;99637.16;5072105;28;20034;-78
2023/04/10 06:05:41;;;;;;;14.25;11.07;;;;;;;10.58;48.09;99647.97;5070701;28;20082;-78
2023/04/10 06:08:06;;;;;;;14.75;12.32;;;;;;;10.75;47.61;99654.78;5070472;28;20032;-77
2023/04/10 06:10:32;;;;;;;15.48;10.38;;;;;;;10.75;47.46;99651.31;5070771;28;20024;-78
2023/04/10 06:12:57;;;;;;;11.45;10.20;;;;;;;10.74;47.50;99625.91;5070805;28;20032;-78
2023/04/10 06:15:23;;;;;;;12.95;9.98;;;;;;;10.86;47.27;99627.13;5071914;28;20025;-78
2023/04/10 06:17:48;;;;;;;12.20;10.35;;;;;;;10.93;46.39;99609.56;5071717;28;20070;-78
2023/04/10 06:20:14;;;;;;;13.45;10.98;;;;;;;11.39;46.84;99678.22;5070320;28;20779;-77
2023/04/10 06:22:39;;;;;;;12.63;10.25;;;;;;;10.86;46.63;99587.50;5068731;28;20021;-78
2023/04/10 06:25:05;;;;;;;12.32;10.23;;;;;;;11.15;46.69;99634.31;5063345;28;20461;-78
2023/04/10 06:27:32;;;;;;;11.90;9.93;;;;;;;11.07;46.76;99621.97;5057349;28;20040;-78
2023/04/10 06:29:58;;;;;;;12.32;9.90;;;;;;;11.55;45.83;99691.25;5057632;28;20060;-77
2023/04/10 06:32:23;;;;;;;10.43;9.25;;;;;;;11.31;45.97;99665.88;5068296;28;20063;-78
2023/04/10 06:34:48;;;;;;;13.23;11.57;;;;;;;11.10;46.17;99634.00;5058657;28;20016;-78
2023/04/10 06:37:14;;;;;;;9.05;7.70;;;;;;;11.19;46.12;99658.56;5051074;28;20029;-78
2023/04/10 06:39:39;;;;;;;8.98;8.00;;;;;;;11.09;45.92;99648.22;5050661;28;20461;-78
2023/04/10 06:42:05;;;;;;;10.10;8.60;;;;;;;11.00;46.06;99633.44;5064495;28;20025;-78
2023/04/10 06:44:30;;;;;;;12.00;8.80;;;;;;;10.71;46.60;99568.16;5070935;28;20472;-78
2023/04/10 06:46:55;;;;;;;11.10;9.40;;;;;;;11.45;46.07;99673.03;5071022;28;20485;-79
2023/04/10 06:49:21;;;;;;;10.68;9.57;;;;;;;11.60;46.18;99669.56;5060492;28;20055;-78
2023/04/10 06:51:47;;;;;;;10.57;9.40;;;;;;;11.90;45.96;99691.63;5069215;28;20091;-78
2023/04/10 06:54:13;;;;;;;11.90;9.80;;;;;;;12.01;45.74;99691.16;5064337;28;20107;-79
2023/04/10 06:56:38;;;;;;;8.40;7.50;;;;;;;11.82;45.81;99649.34;5060485;28;20103;-78
2023/04/10 06:59:04;;;;;;;10.23;8.13;;;;;;;11.57;44.98;99615.22;5068387;28;20093;-78
2023/04/10 07:01:29;;;;;;;9.65;7.72;;;;;;;11.80;45.18;99627.56;5061209;28;20078;-78
2023/04/10 07:03:55;;;;;;;9.25;7.47;;;;;;;11.91;44.97;99635.88;5067551;28;20419;-80
2023/04/10 07:06:20;;;;;;;9.57;8.60;;;;;;;12.34;45.14;99700.31;5066800;28;20024;-79
2023/04/10 07:08:48;;;;;;;7.22;6.35;;;;;;;12.31;44.30;99686.66;5070802;28;20503;-79
2023/04/10 07:11:13;;;;;;;6.72;6.03;;;;;;;12.13;44.38;99643.88;5070677;28;20607;-78
2023/04/10 07:13:38;;;;;;;6.28;5.68;;;;;;;11.93;44.29;99620.63;5069019;28;20108;-78
2023/04/10 07:16:05;;;;;;;6.55;5.88;;;;;;;12.36;44.10;99685.06;5057995;28;20028;-78
2023/04/10 07:18:30;;;;;;;6.18;5.63;;;;;;;12.14;44.00;99653.44;5060414;28;20032;-78
2023/04/10 07:20:56;;;;;;;6.13;5.53;;;;;;;12.36;43.73;99714.22;5052487;28;20192;-78
2023/04/10 07:23:21;;;;;;;7.22;6.53;;;;;;;12.43;44.21;99713.47;5066519;28;20626;-78
2023/04/10 07:25:47;;;;;;;7.00;5.82;;;;;;;12.17;44.62;99675.06;5068440;28;20037;-77
2023/04/10 07:28:12;;;;;;;7.40;6.60;;;;;;;12.26;44.43;99692.50;5056195;28;20082;-78
2023/04/10 07:30:38;;;;;;;8.02;7.22;;;;;;;12.02;44.84;99685.69;5054085;28;20109;-77
2023/04/10 07:33:03;;;;;;;8.65;7.35;;;;;;;12.12;45.62;99695.16;5069442;28;20043;-77
2023/04/10 07:35:28;;;;;;;8.27;7.18;;;;;;;12.17;45.50;99716.59;5060845;28;20040;-77
2023/04/10 07:37:54;;;;;;;8.75;7.07;;;;;;;12.02;46.04;99706.84;5060512;28;20029;-77
2023/04/10 07:40:19;;;;;;;8.02;6.38;;;;;;;11.87;46.17;99682.19;5070472;28;20493;-77
2023/04/10 07:42:45;;;;;;;9.07;7.78;;;;;;;11.40;46.72;99603.19;5065474;28;20107;-77
2023/04/10 07:45:11;;;;;;;8.48;6.50;;;;;;;11.85;46.81;99670.16;5069554;28;20412;-77
2023/04/10 07:47:36;;;;;;;9.00;7.05;;;;;;;11.82;47.38;99652.00;5066697;28;20527;-76
2023/04/10 07:50:02;;;;;;;7.07;6.38;;;;;;;11.82;47.46;99659.94;5074233;28;20099;-77
2023/04/10 07:52:28;;;;;;;10.75;8.32;;;;;;;12.00;46.98;99682.41;5095570;28;20027;-78
2023/04/10 07:54:53;;;;;;;10.02;7.38;;;;;;;11.77;46.63;99637.50;5079897;28;20021;-77
2023/04/10 07:57:18;;;;;;;10.32;8.15;;;;;;;11.72;46.61;99631.91;5070213;28;20032;-77
2023/04/10 07:59:44;;;;;;;8.43;7.63;;;;;;;12.04;46.57;99682.84;5066949;28;20044;-77
2023/04/10 08:02:10;;;;;;;8.98;6.90;;;;;;;11.94;46.99;99669.09;5057798;28;20484;-77
2023/04/10 08:04:35;;;;;;;8.02;7.22;;;;;;;11.80;47.13;99654.00;5054015;28;20021;-78
2023/04/10 08:07:01;;;;;;;11.15;9.20;;;;;;;11.59;47.71;99610.56;5059578;28;20035;-77
2023/04/10 08:09:26;;;;;;;10.73;9.63;;;;;;;11.97;47.54;99669.53;5075775;28;20032;-78
2023/04/10 08:11:51;;;;;;;10.18;8.30;;;;;;;11.67;47.48;99622.88;5076916;28;20024;-77
2023/04/10 08:14:17;;;;;;;11.57;10.10;;;;;;;12.17;47.76;99703.38;5073797;28;20060;-77
2023/04/10 08:16:42;;;;;;;15.00;11.50;;;;;;;12.18;47.85;99700.53;5073312;28;20590;-77
2023/04/10 08:19:08;;;;;;;9.25;7.35;;;;;;;11.63;47.68;99630.34;5070376;28;20032;-77
2023/04/10 08:21:33;;;;;;;7.60;6.80;;;;;;;12.12;48.02;99711.03;5070114;28;20170;-78
2023/04/10 08:24:01;;;;;;;9.20;8.30;;;;;;;12.13;48.52;99715.34;5072519;28;20073;-78
2023/04/10 08:26:27;;;;;;;10.35;9.27;;;;;;;11.95;48.49;99683.94;5070974;28;20469;-78
2023/04/10 08:28:58;;;;;;;9.90;8.90;;;;;;;11.35;48.57;99595.81;5074272;28;22334;-77
2023/04/10 08:31:26;;;;;;;10.25;8.68;;;;;;;12.05;49.50;99706.47;5071588;28;20409;-77
2023/04/10 08:33:51;;;;;;;10.52;8.90;;;;;;;11.63;49.84;99643.56;5071839;28;20028;-77
2023/04/10 08:36:16;;;;;;;10.70;9.57;;;;;;;11.87;49.66;99689.31;5072858;28;20081;-76
2023/04/10 08:38:43;;;;;;;10.88;9.77;;;;;;;12.01;50.52;99704.38;5073231;28;20028;-76
2023/04/10 08:41:10;;;;;;;11.68;10.25;;;;;;;11.79;50.52;99669.06;5072847;28;20057;-77
2023/04/10 08:43:36;;;;;;;14.70;12.00;;;;;;;11.70;51.71;99660.34;5070696;28;20043;-78
2023/04/10 08:46:01;;;;;;;11.73;10.52;;;;;;;11.71;52.05;99659.34;5068605;28;20405;-77
2023/04/10 08:48:34;;;;;;;11.43;9.48;;;;;;;11.93;51.64;99705.31;5061298;28;20031;-77
2023/04/10 08:51:03;;;;;;;11.93;10.70;;;;;;;11.39;51.79;99626.16;5064973;28;20029;-77
2023/04/10 08:53:30;;;;;;;13.13;11.27;;;;;;;11.59;52.16;99650.22;5066182;28;20032;-76
2023/04/10 08:55:59;;;;;;;12.20;10.45;;;;;;;11.90;52.29;99700.38;5068935;28;20036;-77
2023/04/10 08:58:25;;;;;;;14.80;11.80;;;;;;;11.48;52.58;99636.66;5068560;28;20520;-77
2023/04/10 09:00:50;;;;;;;14.27;12.23;;;;;;;11.88;53.51;99685.66;5066340;28;20029;-76
2023/04/10 09:03:16;;;;;;;14.30;12.07;;;;;;;11.32;52.85;99617.31;5053273;28;20037;-77
2023/04/10 09:05:42;;;;;;;12.45;11.25;;;;;;;11.38;53.53;99636.91;5065742;28;20108;-77
2023/04/10 09:08:09;;;;;;;12.27;10.80;;;;;;;11.54;52.76;99651.78;5070147;28;20060;-77
2023/04/10 09:10:35;;;;;;;12.25;10.98;;;;;;;11.63;53.57;99648.03;5068326;28;20410;-77
2023/04/10 09:13:00;;;;;;;12.23;10.88;;;;;;;11.36;53.54;99599.25;5073071;28;20108;-77
2023/04/10 09:15:26;;;;;;;11.32;10.15;;;;;;;11.57;53.11;99624.97;5061808;28;20040;-78
2023/04/10 09:17:58;;;;;;;12.52;9.45;;;;;;;11.90;53.06;99679.22;5063535;28;20100;-77
2023/04/10 09:20:25;;;;;;;15.50;10.60;;;;;;;11.47;53.59;99617.31;5072910;28;20024;-77
2023/04/10 09:22:52;;;;;;;12.82;10.82;;;;;;;11.82;53.52;99654.66;5071358;28;20029;-78
2023/04/10 09:25:40;;;;;;;11.23;10.02;;;;;;;11.50;54.15;99592.34;5067820;28;20103;-78
2023/04/10 09:28:08;;;;;;;11.38;9.98;;;;;;;11.93;54.01;99662.97;5068898;28;20032;-78
2023/04/10 09:30:38;;;;;;;10.23;9.13;;;;;;;11.95;53.99;99666.25;5072545;28;20025;-77
2023/04/10 09:33:20;;;;;;;12.93;10.63;;;;;;;11.45;54.21;99591.06;5069804;28;20021;-77
2023/04/10 09:35:45;;;;;;;10.98;9.60;;;;;;;11.51;53.85;99586.03;5061568;28;20041;-77
2023/04/10 09:38:15;;;;;;;12.38;9.73;;;;;;;12.01;53.65;99651.47;5056732;28;20040;-76
2023/04/10 09:40:41;;;;;;;10.63;9.13;;;;;;;11.63;53.73;99603.91;5059179;28;20036;-77
2023/04/10 09:43:24;;;;;;;12.65;10.05;;;;;;;12.00;54.43;99640.06;5064001;28;20025;-77
2023/04/10 09:45:54;;;;;;;14.70;11.68;;;;;;;12.09;54.51;99644.25;5058826;28;20429;-76
2023/04/10 09:48:21;;;;;;;12.52;11.05;;;;;;;11.77;54.13;99596.97;5062665;28;20443;-77
2023/04/10 09:50:46;;;;;;;12.68;10.27;;;;;;;11.70;54.20;99577.53;5057950;28;20505;-77
2023/04/10 09:53:20;;;;;;;13.48;11.30;;;;;;;12.22;54.01;99633.00;5070339;28;20082;-77
2023/04/10 09:55:47;;;;;;;14.18;12.68;;;;;;;12.20;54.33;99623.59;5086299;28;20047;-77
2023/04/10 09:58:14;;;;;;;12.65;11.20;;;;;;;12.40;54.21;99637.88;5094417;28;20036;-77
2023/04/10 10:00:46;;;;;;;12.52;10.43;;;;;;;12.46;54.13;99631.00;5089274;28;20103;-77
2023/04/10 10:03:17;;;;;;;10.88;9.40;;;;;;;12.42;53.67;99619.97;5073463;28;20638;-77
2023/04/10 10:05:50;;;;;;;11.30;9.60;;;;;;;12.29;53.89;99582.75;5094661;28;20062;-76
2023/04/10 10:08:16;;;;;;;10.65;8.95;;;;;;;12.61;53.20;99632.59;5099190;28;20032;-76
2023/04/10 10:10:53;;;;;;;10.45;8.55;;;;;;;12.26;53.34;99569.91;5091990;28;20108;-77
2023/04/10 10:13:34;;;;;;;11.50;8.75;;;;;;;12.59;53.69;99624.00;5090218;28;20694;-77
2023/04/10 10:16:25;;;;;;;11.85;9.30;;;;;;;12.28;53.74;99574.00;5106232;28;20110;-77
2023/04/10 10:18:56;;;;;;;9.75;8.00;;;;;;;12.34;53.14;99609.50;5093092;28;20032;-77
2023/04/10 10:21:23;;;;;;;11.57;8.57;;;;;;;12.54;53.29;99626.41;5100283;28;20047;-77
2023/04/10 10:23:52;;;;;;;11.48;8.23;;;;;;;12.20;52.75;99562.72;5093467;28;20092;-78
2023/04/10 10:26:19;;;;;;;9.25;7.93;;;;;;;12.42;52.79;99588.19;5094545;28;20237;-77
2023/04/10 10:28:46;;;;;;;10.38;7.97;;;;;;;12.65;52.83;99603.91;5090586;28;20027;-77
2023/04/10 10:31:12;;;;;;;11.98;8.95;;;;;;;12.30;52.93;99566.69;5094937;28;20031;-77
2023/04/10 10:33:39;;;;;;;11.38;9.23;;;;;;;12.36;53.15;99571.22;5091203;28;20032;-77
2023/04/10 10:36:06;;;;;;;9.20;7.68;;;;;;;12.34;52.59;99557.34;5105391;28;20439;-77
2023/04/10 10:38:32;;;;;;;14.90;8.55;;;;;;;12.72;53.26;99612.75;5108072;28;20032;-76
2023/04/10 10:41:09;;;;;;;12.80;8.00;;;;;;;12.73;53.00;99611.72;5090248;28;20020;-78
2023/04/10 10:43:41;;;;;;;9.85;7.30;;;;;;;12.62;53.42;99588.38;5101655;28;20453;-78
2023/04/10 10:46:10;;;;;;;7.72;6.93;;;;;;;12.77;53.26;99606.88;5107589;28;20024;-79
2023/04/10 10:48:35;;;;;;;7.70;6.90;;;;;;;12.77;52.98;99620.94;5110201;28;20032;-77
2023/04/10 10:51:02;;;;;;;10.25;6.93;;;;;;;12.43;52.73;99534.22;5103381;28;20567;-76
2023/04/10 10:53:43;;;;;;;9.20;6.97;;;;;;;12.67;52.66;99557.69;5096217;28;20031;-76
2023/04/10 10:56:18;;;;;;;8.75;6.95;;;;;;;13.01;52.43;99593.22;5090092;28;20051;-77
2023/04/10 10:58:46;;;;;;;8.00;6.65;;;;;;;13.07;51.68;99595.09;5095651;28;20564;-78
2023/04/10 11:01:12;;;;;;;8.10;6.68;;;;;;;13.17;51.64;99585.00;5102724;27;20028;-77
2023/04/10 11:03:38;;;;;;;10.00;6.97;;;;;;;13.32;51.35;99593.66;5090516;28;20031;-78
2023/04/10 11:06:11;;;;;;;6.78;6.18;;;;;;;13.45;50.87;99589.47;5091346;28;20035;-77
2023/04/10 11:09:06;;;;;;;9.05;6.10;;;;;;;13.35;50.87;99555.34;5090454;28;20043;-77
2023/04/10 11:11:57;;;;;;;9.50;7.25;;;;;;;13.64;50.24;99570.19;5100432;28;20048;-78
2023/04/10 11:14:23;;;;;;;6.87;6.17;;;;;;;13.19;50.12;99499.97;5088349;28;20039;-78
2023/04/10 11:16:48;;;;;;;5.80;5.30;;;;;;;13.67;50.03;99572.47;5091062;28;20031;-77
2023/04/10 11:19:16;;;;;;;5.63;5.10;;;;;;;13.73;50.12;99576.97;5097279;28;20596;-77
2023/04/10 11:22:05;;;;;;;6.40;5.90;;;;;;;13.83;50.08;99572.13;5100738;28;20493;-78
2023/04/10 11:24:51;;;;;;;5.50;4.97;;;;;;;13.80;49.71;99571.69;5087850;28;20567;-77
2023/04/10 11:27:39;;;;;;;6.93;5.30;;;;;;;13.84;49.91;99563.13;5099643;28;20036;-78
2023/04/10 11:30:26;;;;;;;6.55;5.53;;;;;;;13.34;49.68;99490.88;5096160;28;20456;-77